Terminal Aerodrome Forecast
Issued by NWS Portland, OR

Home | Current Version | Previous Version | Text Only | Print | Product List | Glossary On
Versions: 1 2 3 4 5 6 7 8 9 10 11 12 13 14
000
FTUS46 KPQR 151143
TAFTTD
TAF
KTTD 151143Z 1512/1612 09015G25KT P6SM OVC250
     FM151500 09013KT P6SM OVC060
     FM151900 10009KT P6SM -RA SCT025 OVC050
     FM160000 24004KT P6SM VCSH SCT025 BKN035 OVC050
     FM160300 26005KT P6SM VCSH SCT025 BKN035 OVC050=

USA.gov is the U.S. government's official web portal to all federal, state and local government web resources and services.